sensor_id;sensor_type;location;lat;lon;timestamp;pressure;altitude;pressure_sealevel;temperature
13219;BMP180;6674;49.152;11.918;2022-11-14T00:01:55;96135.50;;;5.25
13219;BMP180;6674;49.152;11.918;2022-11-14T00:04:22;96137.09;;;5.26
13219;BMP180;6674;49.152;11.918;2022-11-14T00:06:48;96134.72;;;5.24
13219;BMP180;6674;49.152;11.918;2022-11-14T00:09:15;96134.28;;;5.21
13219;BMP180;6674;49.152;11.918;2022-11-14T00:11:42;96133.84;;;5.17
13219;BMP180;6674;49.152;11.918;2022-11-14T00:14:09;96128.91;;;5.16
13219;BMP180;6674;49.152;11.918;2022-11-14T00:16:36;96123.97;;;5.14
13219;BMP180;6674;49.152;11.918;2022-11-14T00:19:03;96128.91;;;5.16
13219;BMP180;6674;49.152;11.918;2022-11-14T00:21:30;96132.59;;;5.13
13219;BMP180;6674;49.152;11.918;2022-11-14T00:23:56;96131.56;;;5.08
13219;BMP180;6674;49.152;11.918;2022-11-14T00:26:23;96143.09;;;5.04
13219;BMP180;6674;49.152;11.918;2022-11-14T00:28:49;96138.97;;;5.03
13219;BMP180;6674;49.152;11.918;2022-11-14T00:31:16;96153.31;;;5.04
13219;BMP180;6674;49.152;11.918;2022-11-14T00:33:44;96141.53;;;5.03
13219;BMP180;6674;49.152;11.918;2022-11-14T00:36:11;96152.53;;;5.04
13219;BMP180;6674;49.152;11.918;2022-11-14T00:38:37;96144.25;;;5.02
13219;BMP180;6674;49.152;11.918;2022-11-14T00:41:04;96139.94;;;5.02
13219;BMP180;6674;49.152;11.918;2022-11-14T00:43:31;96151.75;;;5.03
13219;BMP180;6674;49.152;11.918;2022-11-14T00:45:57;96149.56;;;5.00
13219;BMP180;6674;49.152;11.918;2022-11-14T00:48:24;96145.41;;;4.99
13219;BMP180;6674;49.152;11.918;2022-11-14T00:50:52;96146.22;;;5.00
13219;BMP180;6674;49.152;11.918;2022-11-14T00:53:18;96142.66;;;5.01
13219;BMP180;6674;49.152;11.918;2022-11-14T00:55:45;96135.78;;;5.01
13219;BMP180;6674;49.152;11.918;2022-11-14T00:58:11;96137.56;;;5.01
13219;BMP180;6674;49.152;11.918;2022-11-14T01:00:38;96133.59;;;4.98
13219;BMP180;6674;49.152;11.918;2022-11-14T01:03:05;96134.56;;;4.97
13219;BMP180;6674;49.152;11.918;2022-11-14T01:05:31;96142.41;;;4.96
13219;BMP180;6674;49.152;11.918;2022-11-14T01:07:59;96140.63;;;4.96
13219;BMP180;6674;49.152;11.918;2022-11-14T01:10:26;96144.78;;;4.97
13219;BMP180;6674;49.152;11.918;2022-11-14T01:12:53;96142.84;;;4.99
13219;BMP180;6674;49.152;11.918;2022-11-14T01:15:19;96121.44;;;5.00
13219;BMP180;6674;49.152;11.918;2022-11-14T01:17:46;96122.81;;;5.03
13219;BMP180;6674;49.152;11.918;2022-11-14T01:20:13;96124.59;;;5.02
13219;BMP180;6674;49.152;11.918;2022-11-14T01:22:40;96112.00;;;5.01
13219;BMP180;6674;49.152;11.918;2022-11-14T01:25:08;96131.31;;;5.03
13219;BMP180;6674;49.152;11.918;2022-11-14T01:27:34;96106.69;;;5.02
13219;BMP180;6674;49.152;11.918;2022-11-14T01:30:01;96106.53;;;5.04
13219;BMP180;6674;49.152;11.918;2022-11-14T01:32:28;96108.91;;;5.05
13219;BMP180;6674;49.152;11.918;2022-11-14T01:34:54;96103.28;;;5.10
13219;BMP180;6674;49.152;11.918;2022-11-14T01:37:21;96109.50;;;5.07
13219;BMP180;6674;49.152;11.918;2022-11-14T01:39:48;96103.44;;;5.08
13219;BMP180;6674;49.152;11.918;2022-11-14T01:42:16;96097.34;;;5.09
13219;BMP180;6674;49.152;11.918;2022-11-14T01:44:46;96103.44;;;5.08
13219;BMP180;6674;49.152;11.918;2022-11-14T01:47:16;96088.88;;;5.09
13219;BMP180;6674;49.152;11.918;2022-11-14T01:49:45;96090.66;;;5.08
13219;BMP180;6674;49.152;11.918;2022-11-14T01:52:15;96087.50;;;5.06
13219;BMP180;6674;49.152;11.918;2022-11-14T01:54:45;96083.16;;;5.07
13219;BMP180;6674;49.152;11.918;2022-11-14T01:57:17;96087.66;;;5.05
13219;BMP180;6674;49.152;11.918;2022-11-14T01:59:47;96084.31;;;5.04
13219;BMP180;6674;49.152;11.918;2022-11-14T02:02:17;96079.38;;;5.03
13219;BMP180;6674;49.152;11.918;2022-11-14T02:04:47;96085.66;;;5.00
13219;BMP180;6674;49.152;11.918;2022-11-14T02:07:16;96078.56;;;5.02
13219;BMP180;6674;49.152;11.918;2022-11-14T02:09:45;96071.09;;;5.01
13219;BMP180;6674;49.152;11.918;2022-11-14T02:12:15;96068.53;;;5.01
13219;BMP180;6674;49.152;11.918;2022-11-14T02:14:46;96069.69;;;4.98
13219;BMP180;6674;49.152;11.918;2022-11-14T02:17:15;96059.47;;;4.98
13219;BMP180;6674;49.152;11.918;2022-11-14T02:19:44;96065.19;;;5.00
13219;BMP180;6674;49.152;11.918;2022-11-14T02:22:12;96067.13;;;4.98
13219;BMP180;6674;49.152;11.918;2022-11-14T02:24:39;96066.97;;;5.00
13219;BMP180;6674;49.152;11.918;2022-11-14T02:27:06;96065.97;;;5.01
13219;BMP180;6674;49.152;11.918;2022-11-14T02:29:34;96075.41;;;5.00
13219;BMP180;6674;49.152;11.918;2022-11-14T02:32:01;96076.19;;;5.01
13219;BMP180;6674;49.152;11.918;2022-11-14T02:34:28;96065.97;;;5.01
13219;BMP180;6674;49.152;11.918;2022-11-14T02:36:55;96074.63;;;5.00
13219;BMP180;6674;49.152;11.918;2022-11-14T02:39:23;96060.06;;;5.00
13219;BMP180;6674;49.152;11.918;2022-11-14T02:41:50;96065.19;;;5.00
13219;BMP180;6674;49.152;11.918;2022-11-14T02:44:17;96065.97;;;5.01
13219;BMP180;6674;49.152;11.918;2022-11-14T02:46:44;96052.59;;;4.99
13219;BMP180;6674;49.152;11.918;2022-11-14T02:49:11;96061.03;;;4.99
13219;BMP180;6674;49.152;11.918;2022-11-14T02:51:38;96059.09;;;5.01
13219;BMP180;6674;49.152;11.918;2022-11-14T02:54:05;96058.84;;;4.96
13219;BMP180;6674;49.152;11.918;2022-11-14T02:56:33;96044.66;;;4.94
13219;BMP180;6674;49.152;11.918;2022-11-14T02:59:00;96047.81;;;4.96
13219;BMP180;6674;49.152;11.918;2022-11-14T03:01:26;96042.91;;;4.94
13219;BMP180;6674;49.152;11.918;2022-11-14T03:03:53;96041.31;;;4.93
13219;BMP180;6674;49.152;11.918;2022-11-14T03:06:20;96042.91;;;4.94
13219;BMP180;6674;49.152;11.918;2022-11-14T03:08:46;96029.34;;;4.94
13219;BMP180;6674;49.152;11.918;2022-11-14T03:11:13;96026.16;;;4.92
13219;BMP180;6674;49.152;11.918;2022-11-14T03:13:41;96025.00;;;4.94
13219;BMP180;6674;49.152;11.918;2022-11-14T03:16:10;96029.75;;;4.97
13219;BMP180;6674;49.152;11.918;2022-11-14T03:18:37;96032.31;;;4.97
13219;BMP180;6674;49.152;11.918;2022-11-14T03:21:04;96036.47;;;4.98
13219;BMP180;6674;49.152;11.918;2022-11-14T03:23:31;96036.09;;;5.01
13219;BMP180;6674;49.152;11.918;2022-11-14T03:25:59;96031.78;;;5.02
13219;BMP180;6674;49.152;11.918;2022-11-14T03:28:26;96025.06;;;5.01
13219;BMP180;6674;49.152;11.918;2022-11-14T03:30:54;96013.88;;;5.02
13219;BMP180;6674;49.152;11.918;2022-11-14T03:33:20;96019.19;;;5.00
13219;BMP180;6674;49.152;11.918;2022-11-14T03:35:48;96025.84;;;5.01
13219;BMP180;6674;49.152;11.918;2022-11-14T03:38:15;96031.97;;;5.00
13219;BMP180;6674;49.152;11.918;2022-11-14T03:40:42;96039.44;;;5.02
13219;BMP180;6674;49.152;11.918;2022-11-14T03:43:08;96036.13;;;4.87
13219;BMP180;6674;49.152;11.918;2022-11-14T03:45:36;96029.00;;;4.82
13219;BMP180;6674;49.152;11.918;2022-11-14T03:48:04;96029.44;;;4.71
13219;BMP180;6674;49.152;11.918;2022-11-14T03:50:31;96040.00;;;4.69
13219;BMP180;6674;49.152;11.918;2022-11-14T03:52:58;96032.91;;;4.64
13219;BMP180;6674;49.152;11.918;2022-11-14T03:55:25;96023.81;;;4.62
13219;BMP180;6674;49.152;11.918;2022-11-14T03:57:51;96026.00;;;4.65
13219;BMP180;6674;49.152;11.918;2022-11-14T04:00:19;96032.53;;;4.67
13219;BMP180;6674;49.152;11.918;2022-11-14T04:02:46;96028.22;;;4.68
13219;BMP180;6674;49.152;11.918;2022-11-14T04:05:15;96030.59;;;4.69
13219;BMP180;6674;49.152;11.918;2022-11-14T04:07:42;96018.69;;;4.62
13219;BMP180;6674;49.152;11.918;2022-11-14T04:10:09;96021.00;;;4.57
13219;BMP180;6674;49.152;11.918;2022-11-14T04:12:35;96019.31;;;4.49
13219;BMP180;6674;49.152;11.918;2022-11-14T04:15:03;96020.47;;;4.47
13219;BMP180;6674;49.152;11.918;2022-11-14T04:17:30;96022.06;;;4.48
13219;BMP180;6674;49.152;11.918;2022-11-14T04:19:57;96037.41;;;4.48
13219;BMP180;6674;49.152;11.918;2022-11-14T04:22:25;96038.00;;;4.50
13219;BMP180;6674;49.152;11.918;2022-11-14T04:24:51;96044.69;;;4.51
13219;BMP180;6674;49.152;11.918;2022-11-14T04:27:18;96039.06;;;4.55
13219;BMP180;6674;49.152;11.918;2022-11-14T04:29:45;96037.28;;;4.56
13219;BMP180;6674;49.152;11.918;2022-11-14T04:32:11;96047.31;;;4.57
13219;BMP180;6674;49.152;11.918;2022-11-14T04:34:38;96034.94;;;4.54
13219;BMP180;6674;49.152;11.918;2022-11-14T04:37:05;96038.78;;;4.50
13219;BMP180;6674;49.152;11.918;2022-11-14T04:39:33;96023.28;;;4.52
13219;BMP180;6674;49.152;11.918;2022-11-14T04:42:00;96022.94;;;4.55
13219;BMP180;6674;49.152;11.918;2022-11-14T04:44:26;96033.94;;;4.55
13219;BMP180;6674;49.152;11.918;2022-11-14T04:46:53;96043.03;;;4.58
13219;BMP180;6674;49.152;11.918;2022-11-14T04:49:19;96039.50;;;4.59
13219;BMP180;6674;49.152;11.918;2022-11-14T04:51:47;96038.53;;;4.60
13219;BMP180;6674;49.152;11.918;2022-11-14T04:54:14;96033.59;;;4.58
13219;BMP180;6674;49.152;11.918;2022-11-14T04:56:42;96041.09;;;4.60
13219;BMP180;6674;49.152;11.918;2022-11-14T04:59:09;96034.56;;;4.57
13219;BMP180;6674;49.152;11.918;2022-11-14T05:01:35;96046.09;;;4.53
13219;BMP180;6674;49.152;11.918;2022-11-14T05:04:02;96054.91;;;4.51
13219;BMP180;6674;49.152;11.918;2022-11-14T05:06:29;96053.34;;;4.50
13219;BMP180;6674;49.152;11.918;2022-11-14T05:08:55;96042.50;;;4.48
13219;BMP180;6674;49.152;11.918;2022-11-14T05:11:22;96044.84;;;4.49
13219;BMP180;6674;49.152;11.918;2022-11-14T05:13:50;96044.59;;;4.44
13219;BMP180;6674;49.152;11.918;2022-11-14T05:16:17;96042.59;;;4.40
13219;BMP180;6674;49.152;11.918;2022-11-14T05:18:43;96039.94;;;4.33
13219;BMP180;6674;49.152;11.918;2022-11-14T05:21:12;96053.66;;;4.32
13219;BMP180;6674;49.152;11.918;2022-11-14T05:23:39;96057.16;;;4.31
13219;BMP180;6674;49.152;11.918;2022-11-14T05:26:08;96059.13;;;4.29
13219;BMP180;6674;49.152;11.918;2022-11-14T05:28:35;96048.63;;;4.25
13219;BMP180;6674;49.152;11.918;2022-11-14T05:31:04;96044.13;;;4.27
13219;BMP180;6674;49.152;11.918;2022-11-14T05:33:32;96042.22;;;4.28
13219;BMP180;6674;49.152;11.918;2022-11-14T05:36:02;96037.38;;;4.33
13219;BMP180;6674;49.152;11.918;2022-11-14T05:38:29;96043.44;;;4.32
13219;BMP180;6674;49.152;11.918;2022-11-14T05:40:56;96052.34;;;4.22
13219;BMP180;6674;49.152;11.918;2022-11-14T05:43:22;96054.44;;;4.33
13219;BMP180;6674;49.152;11.918;2022-11-14T05:45:49;96053.50;;;4.34
13219;BMP180;6674;49.152;11.918;2022-11-14T05:48:17;96051.38;;;4.37
13219;BMP180;6674;49.152;11.918;2022-11-14T05:50:44;96054.53;;;4.39
13219;BMP180;6674;49.152;11.918;2022-11-14T05:53:10;96056.56;;;4.44
13219;BMP180;6674;49.152;11.918;2022-11-14T05:55:37;96045.75;;;4.42
13219;BMP180;6674;49.152;11.918;2022-11-14T05:58:04;96029.19;;;4.38
13219;BMP180;6674;49.152;11.918;2022-11-14T06:00:30;96040.81;;;4.40
13219;BMP180;6674;49.152;11.918;2022-11-14T06:02:57;96053.41;;;4.42
13219;BMP180;6674;49.152;11.918;2022-11-14T06:05:25;96045.16;;;4.40
13219;BMP180;6674;49.152;11.918;2022-11-14T06:07:55;96052.63;;;4.41
13219;BMP180;6674;49.152;11.918;2022-11-14T06:10:22;96051.47;;;4.44
13219;BMP180;6674;49.152;11.918;2022-11-14T06:12:49;96053.69;;;4.47
13219;BMP180;6674;49.152;11.918;2022-11-14T06:15:16;96055.88;;;4.50
13219;BMP180;6674;49.152;11.918;2022-11-14T06:17:43;96057.91;;;4.54
13219;BMP180;6674;49.152;11.918;2022-11-14T06:20:10;96061.09;;;4.56
13219;BMP180;6674;49.152;11.918;2022-11-14T06:22:39;96065.03;;;4.59
13219;BMP180;6674;49.152;11.918;2022-11-14T06:25:06;96078.25;;;4.62
13219;BMP180;6674;49.152;11.918;2022-11-14T06:27:33;96082.84;;;4.67
13219;BMP180;6674;49.152;11.918;2022-11-14T06:30:00;96091.28;;;4.67
13219;BMP180;6674;49.152;11.918;2022-11-14T06:32:27;96093.84;;;4.67
13219;BMP180;6674;49.152;11.918;2022-11-14T06:34:53;96090.50;;;4.67
13219;BMP180;6674;49.152;11.918;2022-11-14T06:37:20;96098.50;;;4.64
13219;BMP180;6674;49.152;11.918;2022-11-14T06:39:48;96101.88;;;4.64
13219;BMP180;6674;49.152;11.918;2022-11-14T06:42:15;96109.53;;;4.64
13219;BMP180;6674;49.152;11.918;2022-11-14T06:44:42;96103.44;;;4.65
13219;BMP180;6674;49.152;11.918;2022-11-14T06:47:09;96108.03;;;4.70
13219;BMP180;6674;49.152;11.918;2022-11-14T06:49:36;96112.19;;;4.71
13219;BMP180;6674;49.152;11.918;2022-11-14T06:52:03;96114.38;;;4.73
13219;BMP180;6674;49.152;11.918;2022-11-14T06:54:29;96123.13;;;4.93
13219;BMP180;6674;49.152;11.918;2022-11-14T06:56:57;96118.63;;;4.95
13219;BMP180;6674;49.152;11.918;2022-11-14T06:59:24;96127.84;;;4.96
13219;BMP180;6674;49.152;11.918;2022-11-14T07:01:50;96115.97;;;5.03
13219;BMP180;6674;49.152;11.918;2022-11-14T07:04:17;96116.75;;;5.04
13219;BMP180;6674;49.152;11.918;2022-11-14T07:06:44;96120.34;;;5.09
13219;BMP180;6674;49.152;11.918;2022-11-14T07:09:10;96118.50;;;5.17
13219;BMP180;6674;49.152;11.918;2022-11-14T07:11:37;96105.16;;;5.22
13219;BMP180;6674;49.152;11.918;2022-11-14T07:14:05;96110.09;;;5.23
13219;BMP180;6674;49.152;11.918;2022-11-14T07:16:33;96100.31;;;5.27
13219;BMP180;6674;49.152;11.918;2022-11-14T07:19:02;96093.53;;;5.34
13219;BMP180;6674;49.152;11.918;2022-11-14T07:21:30;96097.91;;;5.40
13219;BMP180;6674;49.152;11.918;2022-11-14T07:23:57;96103.44;;;5.43
13219;BMP180;6674;49.152;11.918;2022-11-14T07:26:23;96095.94;;;5.42
13219;BMP180;6674;49.152;11.918;2022-11-14T07:28:50;96092.31;;;5.51
13219;BMP180;6674;49.152;11.918;2022-11-14T07:31:19;96085.50;;;5.57
13219;BMP180;6674;49.152;11.918;2022-11-14T07:33:46;96099.53;;;5.61
13219;BMP180;6674;49.152;11.918;2022-11-14T07:36:14;96099.78;;;5.66
13219;BMP180;6674;49.152;11.918;2022-11-14T07:38:43;96101.59;;;5.72
13219;BMP180;6674;49.152;11.918;2022-11-14T07:41:11;96096.75;;;5.77
13219;BMP180;6674;49.152;11.918;2022-11-14T07:43:39;96097.63;;;5.84
13219;BMP180;6674;49.152;11.918;2022-11-14T07:46:07;96094.13;;;5.92
13219;BMP180;6674;49.152;11.918;2022-11-14T07:48:37;96097.75;;;5.97
13219;BMP180;6674;49.152;11.918;2022-11-14T07:51:05;96107.06;;;6.04
13219;BMP180;6674;49.152;11.918;2022-11-14T07:53:32;96101.38;;;6.09
13219;BMP180;6674;49.152;11.918;2022-11-14T07:56:02;96102.59;;;6.13
13219;BMP180;6674;49.152;11.918;2022-11-14T07:58:29;96103.06;;;6.23
13219;BMP180;6674;49.152;11.918;2022-11-14T08:00:59;96102.34;;;6.29
13219;BMP180;6674;49.152;11.918;2022-11-14T08:03:26;96096.88;;;6.38
13219;BMP180;6674;49.152;11.918;2022-11-14T08:06:00;96076.44;;;6.44
13219;BMP180;6674;49.152;11.918;2022-11-14T08:08:27;96080.44;;;6.53
13219;BMP180;6674;49.152;11.918;2022-11-14T08:10:55;96073.78;;;6.59
13219;BMP180;6674;49.152;11.918;2022-11-14T08:13:22;96065.94;;;6.67
13219;BMP180;6674;49.152;11.918;2022-11-14T08:15:48;96069.50;;;6.72
13219;BMP180;6674;49.152;11.918;2022-11-14T08:18:15;96087.31;;;6.80
13219;BMP180;6674;49.152;11.918;2022-11-14T08:20:42;96088.88;;;6.81
13219;BMP180;6674;49.152;11.918;2022-11-14T08:23:10;96077.13;;;6.93
13219;BMP180;6674;49.152;11.918;2022-11-14T08:25:37;96074.97;;;6.96
13219;BMP180;6674;49.152;11.918;2022-11-14T08:28:04;96078.75;;;7.07
13219;BMP180;6674;49.152;11.918;2022-11-14T08:30:31;96065.94;;;7.07
13219;BMP180;6674;49.152;11.918;2022-11-14T08:33:00;96069.72;;;7.11
13219;BMP180;6674;49.152;11.918;2022-11-14T08:35:27;96057.91;;;7.23
13219;BMP180;6674;49.152;11.918;2022-11-14T08:37:54;96045.13;;;7.35
13219;BMP180;6674;49.152;11.918;2022-11-14T08:40:22;96051.25;;;7.47
13219;BMP180;6674;49.152;11.918;2022-11-14T08:42:49;96050.88;;;7.50
13219;BMP180;6674;49.152;11.918;2022-11-14T08:45:15;96058.41;;;7.58
13219;BMP180;6674;49.152;11.918;2022-11-14T08:47:50;96056.84;;;7.70
13219;BMP180;6674;49.152;11.918;2022-11-14T08:50:17;96058.44;;;7.71
13219;BMP180;6674;49.152;11.918;2022-11-14T08:52:48;96060.22;;;7.83
13219;BMP180;6674;49.152;11.918;2022-11-14T08:55:15;96066.38;;;7.89
13219;BMP180;6674;49.152;11.918;2022-11-14T08:57:43;96069.91;;;7.94
13219;BMP180;6674;49.152;11.918;2022-11-14T09:00:10;96053.72;;;7.94
13219;BMP180;6674;49.152;11.918;2022-11-14T09:02:37;96065.22;;;8.11
13219;BMP180;6674;49.152;11.918;2022-11-14T09:05:04;96055.31;;;8.20
13219;BMP180;6674;49.152;11.918;2022-11-14T09:07:31;96052.16;;;8.31
13219;BMP180;6674;49.152;11.918;2022-11-14T09:09:58;96053.13;;;8.43
13219;BMP180;6674;49.152;11.918;2022-11-14T09:12:24;96061.22;;;8.53
13219;BMP180;6674;49.152;11.918;2022-11-14T09:14:52;96051.53;;;8.68
13219;BMP180;6674;49.152;11.918;2022-11-14T09:17:19;96052.09;;;8.83
13219;BMP180;6674;49.152;11.918;2022-11-14T09:19:45;96056.00;;;8.98
13219;BMP180;6674;49.152;11.918;2022-11-14T09:22:12;96049.22;;;9.10
13219;BMP180;6674;49.152;11.918;2022-11-14T09:24:39;96059.47;;;9.16
13219;BMP180;6674;49.152;11.918;2022-11-14T09:27:07;96059.81;;;9.26
13219;BMP180;6674;49.152;11.918;2022-11-14T09:29:35;96058.22;;;9.38
13219;BMP180;6674;49.152;11.918;2022-11-14T09:32:04;96064.47;;;9.48
13219;BMP180;6674;49.152;11.918;2022-11-14T09:34:32;96056.16;;;9.53
13219;BMP180;6674;49.152;11.918;2022-11-14T09:37:01;96064.72;;;9.78
13219;BMP180;6674;49.152;11.918;2022-11-14T09:39:28;96057.13;;;9.89
13219;BMP180;6674;49.152;11.918;2022-11-14T09:42:04;96064.91;;;10.13
13219;BMP180;6674;49.152;11.918;2022-11-14T09:44:44;96063.97;;;10.32
13219;BMP180;6674;49.152;11.918;2022-11-14T09:47:18;96064.22;;;10.48
13219;BMP180;6674;49.152;11.918;2022-11-14T09:49:48;96071.19;;;10.66
13219;BMP180;6674;49.152;11.918;2022-11-14T09:52:25;96062.25;;;10.86
13219;BMP180;6674;49.152;11.918;2022-11-14T09:54:55;96058.59;;;11.11
13219;BMP180;6674;49.152;11.918;2022-11-14T09:57:23;96051.50;;;11.24
13219;BMP180;6674;49.152;11.918;2022-11-14T09:59:50;96049.41;;;11.33
13219;BMP180;6674;49.152;11.918;2022-11-14T10:02:32;96046.06;;;11.50
13219;BMP180;6674;49.152;11.918;2022-11-14T10:05:16;96043.41;;;11.68
13219;BMP180;6674;49.152;11.918;2022-11-14T10:07:54;96045.16;;;11.85
13219;BMP180;6674;49.152;11.918;2022-11-14T10:10:36;96052.47;;;11.88
13219;BMP180;6674;49.152;11.918;2022-11-14T10:13:13;96050.69;;;12.00
13219;BMP180;6674;49.152;11.918;2022-11-14T10:15:45;96057.69;;;12.11
13219;BMP180;6674;49.152;11.918;2022-11-14T10:18:32;96062.09;;;12.22
13219;BMP180;6674;49.152;11.918;2022-11-14T10:21:11;96054.78;;;12.19
13219;BMP180;6674;49.152;11.918;2022-11-14T10:23:44;96050.63;;;12.18
13219;BMP180;6674;49.152;11.918;2022-11-14T10:26:14;96050.31;;;12.37
13219;BMP180;6674;49.152;11.918;2022-11-14T10:28:58;96045.91;;;12.38
13219;BMP180;6674;49.152;11.918;2022-11-14T10:31:36;96038.41;;;12.36
13219;BMP180;6674;49.152;11.918;2022-11-14T10:34:08;96033.47;;;12.46
13219;BMP180;6674;49.152;11.918;2022-11-14T10:36:48;96039.63;;;12.56
13219;BMP180;6674;49.152;11.918;2022-11-14T10:39:22;96028.84;;;12.59
13219;BMP180;6674;49.152;11.918;2022-11-14T10:41:55;96039.41;;;12.69
13219;BMP180;6674;49.152;11.918;2022-11-14T10:44:25;96044.38;;;12.82
13219;BMP180;6674;49.152;11.918;2022-11-14T10:46:56;96050.56;;;12.81
13219;BMP180;6674;49.152;11.918;2022-11-14T10:49:31;96048.50;;;12.94
13219;BMP180;6674;49.152;11.918;2022-11-14T10:52:03;96051.59;;;12.92
13219;BMP180;6674;49.152;11.918;2022-11-14T10:54:34;96049.53;;;13.05
13219;BMP180;6674;49.152;11.918;2022-11-14T10:57:13;96040.41;;;13.02
13219;BMP180;6674;49.152;11.918;2022-11-14T10:59:42;96042.28;;;13.18
13219;BMP180;6674;49.152;11.918;2022-11-14T11:02:09;96042.81;;;13.32
13219;BMP180;6674;49.152;11.918;2022-11-14T11:04:38;96037.78;;;13.53
13219;BMP180;6674;49.152;11.918;2022-11-14T11:07:21;96043.31;;;13.56
13219;BMP180;6674;49.152;11.918;2022-11-14T11:10:09;96040.19;;;13.71
13219;BMP180;6674;49.152;11.918;2022-11-14T11:13:01;96050.50;;;13.82
13219;BMP180;6674;49.152;11.918;2022-11-14T11:15:29;96052.50;;;13.91
13219;BMP180;6674;49.152;11.918;2022-11-14T11:17:57;96065.41;;;13.75
13219;BMP180;6674;49.152;11.918;2022-11-14T11:20:30;96051.38;;;13.71
13219;BMP180;6674;49.152;11.918;2022-11-14T11:23:02;96051.00;;;13.79
13219;BMP180;6674;49.152;11.918;2022-11-14T11:25:31;96046.44;;;13.86
13219;BMP180;6674;49.152;11.918;2022-11-14T11:28:06;96048.66;;;13.94
13219;BMP180;6674;49.152;11.918;2022-11-14T11:30:33;96047.72;;;14.00
13219;BMP180;6674;49.152;11.918;2022-11-14T11:33:21;96053.47;;;14.02
13219;BMP180;6674;49.152;11.918;2022-11-14T11:35:51;96045.22;;;14.05
13219;BMP180;6674;49.152;11.918;2022-11-14T11:38:20;96036.53;;;14.11
13219;BMP180;6674;49.152;11.918;2022-11-14T11:40:50;96041.56;;;14.33
13219;BMP180;6674;49.152;11.918;2022-11-14T11:43:25;96039.50;;;14.35
13219;BMP180;6674;49.152;11.918;2022-11-14T11:45:55;96025.06;;;14.39
13219;BMP180;6674;49.152;11.918;2022-11-14T11:48:27;96029.38;;;14.67
13219;BMP180;6674;49.152;11.918;2022-11-14T11:50:56;96015.84;;;14.86
13219;BMP180;6674;49.152;11.918;2022-11-14T11:53:27;96025.09;;;14.98
13219;BMP180;6674;49.152;11.918;2022-11-14T11:55:59;96026.53;;;15.06
13219;BMP180;6674;49.152;11.918;2022-11-14T11:58:29;96024.75;;;15.11
13219;BMP180;6674;49.152;11.918;2022-11-14T12:00:58;96012.78;;;15.10
13219;BMP180;6674;49.152;11.918;2022-11-14T12:03:25;96012.41;;;15.18
13219;BMP180;6674;49.152;11.918;2022-11-14T12:06:01;96012.00;;;15.09
13219;BMP180;6674;49.152;11.918;2022-11-14T12:08:36;96014.25;;;15.01
13219;BMP180;6674;49.152;11.918;2022-11-14T12:11:05;96013.03;;;15.08
13219;BMP180;6674;49.152;11.918;2022-11-14T12:13:52;96021.59;;;15.25
13219;BMP180;6674;49.152;11.918;2022-11-14T12:16:34;96028.59;;;15.08
13219;BMP180;6674;49.152;11.918;2022-11-14T12:22:20;96037.53;;;14.75
13219;BMP180;6674;49.152;11.918;2022-11-14T12:25:15;96034.94;;;14.59
13219;BMP180;6674;49.152;11.918;2022-11-14T12:27:56;96041.78;;;14.48
13219;BMP180;6674;49.152;11.918;2022-11-14T12:30:29;96046.75;;;14.33
13219;BMP180;6674;49.152;11.918;2022-11-14T12:32:59;96043.78;;;14.25
13219;BMP180;6674;49.152;11.918;2022-11-14T12:35:29;96054.00;;;14.31
13219;BMP180;6674;49.152;11.918;2022-11-14T12:38:00;96054.38;;;14.23
13219;BMP180;6674;49.152;11.918;2022-11-14T12:40:30;96054.03;;;14.04
13219;BMP180;6674;49.152;11.918;2022-11-14T12:42:59;96051.78;;;13.96
13219;BMP180;6674;49.152;11.918;2022-11-14T12:45:58;96044.44;;;13.77
13219;BMP180;6674;49.152;11.918;2022-11-14T12:48:31;96045.56;;;13.53
13219;BMP180;6674;49.152;11.918;2022-11-14T12:50:59;96055.31;;;13.35
13219;BMP180;6674;49.152;11.918;2022-11-14T12:53:43;96044.59;;;13.42
13219;BMP180;6674;49.152;11.918;2022-11-14T12:56:49;96047.41;;;13.41
13219;BMP180;6674;49.152;11.918;2022-11-14T12:59:33;96053.78;;;13.22
13219;BMP180;6674;49.152;11.918;2022-11-14T13:02:24;96053.44;;;13.19
13219;BMP180;6674;49.152;11.918;2022-11-14T13:07:50;96051.84;;;13.29
13219;BMP180;6674;49.152;11.918;2022-11-14T13:10:27;96058.84;;;13.29
13219;BMP180;6674;49.152;11.918;2022-11-14T13:13:04;96064.75;;;13.40
13219;BMP180;6674;49.152;11.918;2022-11-14T13:15:50;96059.03;;;13.66
13219;BMP180;6674;49.152;11.918;2022-11-14T13:18:35;96066.28;;;13.80
13219;BMP180;6674;49.152;11.918;2022-11-14T13:21:22;96070.41;;;13.93
13219;BMP180;6674;49.152;11.918;2022-11-14T13:24:07;96063.09;;;13.90
13219;BMP180;6674;49.152;11.918;2022-11-14T13:26:37;96052.31;;;14.09
13219;BMP180;6674;49.152;11.918;2022-11-14T13:29:03;96059.56;;;14.23
13219;BMP180;6674;49.152;11.918;2022-11-14T13:31:48;96058.06;;;14.27
13219;BMP180;6674;49.152;11.918;2022-11-14T13:34:31;96051.94;;;14.17
13219;BMP180;6674;49.152;11.918;2022-11-14T13:37:07;96049.22;;;13.96
13219;BMP180;6674;49.152;11.918;2022-11-14T13:39:40;96050.88;;;14.02
13219;BMP180;6674;49.152;11.918;2022-11-14T13:42:28;96049.81;;;14.30
13219;BMP180;6674;49.152;11.918;2022-11-14T13:48:32;96051.28;;;14.75
13219;BMP180;6674;49.152;11.918;2022-11-14T13:51:04;96050.84;;;14.62
13219;BMP180;6674;49.152;11.918;2022-11-14T13:53:32;96045.25;;;14.54
13219;BMP180;6674;49.152;11.918;2022-11-14T13:56:06;96046.75;;;14.50
13219;BMP180;6674;49.152;11.918;2022-11-14T13:59:06;96047.28;;;14.68
13219;BMP180;6674;49.152;11.918;2022-11-14T14:01:54;96047.97;;;14.80
13219;BMP180;6674;49.152;11.918;2022-11-14T14:04:39;96050.00;;;14.94
13219;BMP180;6674;49.152;11.918;2022-11-14T14:07:13;96041.44;;;15.15
13219;BMP180;6674;49.152;11.918;2022-11-14T14:09:47;96043.81;;;15.16
13219;BMP180;6674;49.152;11.918;2022-11-14T14:12:38;96042.50;;;15.35
13219;BMP180;6674;49.152;11.918;2022-11-14T14:15:20;96039.72;;;15.42
13219;BMP180;6674;49.152;11.918;2022-11-14T14:18:01;96027.13;;;15.55
13219;BMP180;6674;49.152;11.918;2022-11-14T14:20:37;96020.97;;;15.61
13219;BMP180;6674;49.152;11.918;2022-11-14T14:23:15;96024.19;;;15.73
13219;BMP180;6674;49.152;11.918;2022-11-14T14:25:48;96024.63;;;15.65
13219;BMP180;6674;49.152;11.918;2022-11-14T14:28:23;96017.38;;;15.67
13219;BMP180;6674;49.152;11.918;2022-11-14T14:31:08;96027.91;;;15.55
13219;BMP180;6674;49.152;11.918;2022-11-14T14:33:39;96037.13;;;15.20
13219;BMP180;6674;49.152;11.918;2022-11-14T14:36:17;96021.91;;;15.12
13219;BMP180;6674;49.152;11.918;2022-11-14T14:38:45;96024.38;;;15.19
13219;BMP180;6674;49.152;11.918;2022-11-14T14:41:13;96017.91;;;15.21
13219;BMP180;6674;49.152;11.918;2022-11-14T14:43:41;96020.50;;;15.21